sensor_id;sensor_type;location;lat;lon;timestamp;P1;durP1;ratioP1;P2;durP2;ratioP2
26211;SDS011;13951;49.516;6.094;2023-04-29T00:01:52;1.57;;;1.20;;
26211;SDS011;13951;49.516;6.094;2023-04-29T00:04:30;1.57;;;1.20;;
26211;SDS011;13951;49.516;6.094;2023-04-29T00:07:03;0.90;;;0.90;;
26211;SDS011;13951;49.516;6.094;2023-04-29T00:09:37;1.10;;;1.00;;
26211;SDS011;13951;49.516;6.094;2023-04-29T00:12:10;1.47;;;1.00;;
26211;SDS011;13951;49.516;6.094;2023-04-29T00:14:43;1.37;;;1.03;;
26211;SDS011;13951;49.516;6.094;2023-04-29T00:17:16;1.60;;;0.90;;
26211;SDS011;13951;49.516;6.094;2023-04-29T00:19:50;1.20;;;1.00;;
26211;SDS011;13951;49.516;6.094;2023-04-29T00:22:24;1.10;;;1.00;;
26211;SDS011;13951;49.516;6.094;2023-04-29T00:24:57;1.43;;;1.20;;
26211;SDS011;13951;49.516;6.094;2023-04-29T00:27:30;1.43;;;1.03;;
26211;SDS011;13951;49.516;6.094;2023-04-29T00:30:05;1.87;;;1.10;;
26211;SDS011;13951;49.516;6.094;2023-04-29T00:32:39;1.60;;;1.10;;
26211;SDS011;13951;49.516;6.094;2023-04-29T00:35:12;1.53;;;1.40;;
26211;SDS011;13951;49.516;6.094;2023-04-29T00:37:45;1.20;;;1.10;;
26211;SDS011;13951;49.516;6.094;2023-04-29T00:40:19;1.47;;;1.23;;
26211;SDS011;13951;49.516;6.094;2023-04-29T00:42:52;1.57;;;1.40;;
26211;SDS011;13951;49.516;6.094;2023-04-29T00:45:25;2.50;;;1.50;;
26211;SDS011;13951;49.516;6.094;2023-04-29T00:47:59;2.57;;;1.50;;
26211;SDS011;13951;49.516;6.094;2023-04-29T00:50:32;1.90;;;1.60;;
26211;SDS011;13951;49.516;6.094;2023-04-29T00:53:05;2.03;;;1.43;;
26211;SDS011;13951;49.516;6.094;2023-04-29T00:55:39;1.20;;;1.10;;
26211;SDS011;13951;49.516;6.094;2023-04-29T00:58:15;2.27;;;1.30;;
26211;SDS011;13951;49.516;6.094;2023-04-29T01:00:49;1.50;;;1.40;;
26211;SDS011;13951;49.516;6.094;2023-04-29T01:03:24;2.47;;;1.87;;
26211;SDS011;13951;49.516;6.094;2023-04-29T01:06:03;3.03;;;1.53;;
26211;SDS011;13951;49.516;6.094;2023-04-29T01:17:59;2.30;;;1.80;;
26211;SDS011;13951;49.516;6.094;2023-04-29T01:20:43;2.27;;;1.83;;
26211;SDS011;13951;49.516;6.094;2023-04-29T01:23:17;2.37;;;1.57;;
26211;SDS011;13951;49.516;6.094;2023-04-29T01:25:52;2.00;;;1.70;;
26211;SDS011;13951;49.516;6.094;2023-04-29T01:28:54;3.00;;;1.90;;
26211;SDS011;13951;49.516;6.094;2023-04-29T01:31:48;1.90;;;1.57;;
26211;SDS011;13951;49.516;6.094;2023-04-29T01:34:36;2.90;;;2.03;;
26211;SDS011;13951;49.516;6.094;2023-04-29T01:37:17;1.63;;;1.53;;
26211;SDS011;13951;49.516;6.094;2023-04-29T01:43:01;2.83;;;1.90;;
26211;SDS011;13951;49.516;6.094;2023-04-29T01:45:38;5.03;;;1.80;;
26211;SDS011;13951;49.516;6.094;2023-04-29T01:48:16;2.53;;;2.00;;
26211;SDS011;13951;49.516;6.094;2023-04-29T01:50:50;5.00;;;2.13;;
26211;SDS011;13951;49.516;6.094;2023-04-29T01:53:23;2.90;;;2.30;;
26211;SDS011;13951;49.516;6.094;2023-04-29T01:55:57;3.63;;;1.97;;
26211;SDS011;13951;49.516;6.094;2023-04-29T01:58:33;3.50;;;2.53;;
26211;SDS011;13951;49.516;6.094;2023-04-29T02:01:14;3.07;;;2.57;;
26211;SDS011;13951;49.516;6.094;2023-04-29T02:03:47;3.37;;;2.97;;
26211;SDS011;13951;49.516;6.094;2023-04-29T02:06:21;3.37;;;2.40;;
26211;SDS011;13951;49.516;6.094;2023-04-29T02:09:00;3.43;;;2.53;;
26211;SDS011;13951;49.516;6.094;2023-04-29T02:11:35;4.10;;;2.60;;
26211;SDS011;13951;49.516;6.094;2023-04-29T02:14:08;3.77;;;2.80;;
26211;SDS011;13951;49.516;6.094;2023-04-29T02:16:44;4.22;;;3.22;;
26211;SDS011;13951;49.516;6.094;2023-04-29T02:19:18;3.47;;;2.80;;
26211;SDS011;13951;49.516;6.094;2023-04-29T02:21:51;5.17;;;3.30;;
26211;SDS011;13951;49.516;6.094;2023-04-29T02:24:24;3.90;;;2.63;;
26211;SDS011;13951;49.516;6.094;2023-04-29T02:26:57;4.30;;;2.73;;
26211;SDS011;13951;49.516;6.094;2023-04-29T02:29:31;5.07;;;2.83;;
26211;SDS011;13951;49.516;6.094;2023-04-29T02:32:04;3.57;;;2.50;;
26211;SDS011;13951;49.516;6.094;2023-04-29T02:34:38;4.13;;;2.70;;
26211;SDS011;13951;49.516;6.094;2023-04-29T02:37:11;3.73;;;2.67;;
26211;SDS011;13951;49.516;6.094;2023-04-29T02:39:44;4.87;;;3.20;;
26211;SDS011;13951;49.516;6.094;2023-04-29T02:42:18;3.23;;;2.70;;
26211;SDS011;13951;49.516;6.094;2023-04-29T02:44:51;3.97;;;2.70;;
26211;SDS011;13951;49.516;6.094;2023-04-29T02:47:24;3.77;;;2.70;;
26211;SDS011;13951;49.516;6.094;2023-04-29T02:49:57;5.43;;;2.77;;
26211;SDS011;13951;49.516;6.094;2023-04-29T02:52:30;4.87;;;2.90;;
26211;SDS011;13951;49.516;6.094;2023-04-29T02:55:03;4.10;;;2.77;;
26211;SDS011;13951;49.516;6.094;2023-04-29T02:57:36;5.10;;;3.23;;
26211;SDS011;13951;49.516;6.094;2023-04-29T03:00:09;4.10;;;2.83;;
26211;SDS011;13951;49.516;6.094;2023-04-29T03:02:42;6.23;;;3.20;;
26211;SDS011;13951;49.516;6.094;2023-04-29T03:05:15;4.88;;;3.80;;
26211;SDS011;13951;49.516;6.094;2023-04-29T03:07:48;4.63;;;3.13;;
26211;SDS011;13951;49.516;6.094;2023-04-29T03:10:21;5.10;;;3.40;;
26211;SDS011;13951;49.516;6.094;2023-04-29T03:12:53;7.37;;;3.90;;
26211;SDS011;13951;49.516;6.094;2023-04-29T03:15:26;5.87;;;3.60;;
26211;SDS011;13951;49.516;6.094;2023-04-29T03:18:00;6.73;;;3.27;;
26211;SDS011;13951;49.516;6.094;2023-04-29T03:20:35;5.87;;;3.63;;
26211;SDS011;13951;49.516;6.094;2023-04-29T03:23:09;4.47;;;3.23;;
26211;SDS011;13951;49.516;6.094;2023-04-29T03:25:42;5.70;;;3.90;;
26211;SDS011;13951;49.516;6.094;2023-04-29T03:28:15;5.43;;;3.50;;
26211;SDS011;13951;49.516;6.094;2023-04-29T03:30:48;5.80;;;3.70;;
26211;SDS011;13951;49.516;6.094;2023-04-29T03:33:21;6.93;;;3.77;;
26211;SDS011;13951;49.516;6.094;2023-04-29T03:35:55;5.57;;;3.60;;
26211;SDS011;13951;49.516;6.094;2023-04-29T03:38:36;5.37;;;3.53;;
26211;SDS011;13951;49.516;6.094;2023-04-29T03:41:09;6.77;;;3.60;;
26211;SDS011;13951;49.516;6.094;2023-04-29T03:43:42;8.80;;;3.83;;
26211;SDS011;13951;49.516;6.094;2023-04-29T03:46:17;5.90;;;3.30;;
26211;SDS011;13951;49.516;6.094;2023-04-29T03:48:50;4.20;;;3.40;;
26211;SDS011;13951;49.516;6.094;2023-04-29T03:51:24;3.83;;;3.27;;
26211;SDS011;13951;49.516;6.094;2023-04-29T03:54:04;6.37;;;3.60;;
26211;SDS011;13951;49.516;6.094;2023-04-29T03:56:38;5.57;;;3.57;;
26211;SDS011;13951;49.516;6.094;2023-04-29T03:59:11;6.77;;;4.03;;
26211;SDS011;13951;49.516;6.094;2023-04-29T04:01:45;5.87;;;4.00;;
26211;SDS011;13951;49.516;6.094;2023-04-29T04:04:18;5.67;;;4.03;;
26211;SDS011;13951;49.516;6.094;2023-04-29T04:06:53;6.13;;;3.90;;
26211;SDS011;13951;49.516;6.094;2023-04-29T04:09:31;4.03;;;3.37;;
26211;SDS011;13951;49.516;6.094;2023-04-29T04:12:05;6.40;;;3.80;;
26211;SDS011;13951;49.516;6.094;2023-04-29T04:14:57;5.87;;;3.40;;
26211;SDS011;13951;49.516;6.094;2023-04-29T04:17:31;5.10;;;3.90;;
26211;SDS011;13951;49.516;6.094;2023-04-29T04:20:04;5.67;;;4.17;;
26211;SDS011;13951;49.516;6.094;2023-04-29T04:22:38;4.23;;;3.50;;
26211;SDS011;13951;49.516;6.094;2023-04-29T04:25:37;4.60;;;3.40;;
26211;SDS011;13951;49.516;6.094;2023-04-29T04:28:28;4.53;;;3.37;;
26211;SDS011;13951;49.516;6.094;2023-04-29T04:31:10;6.83;;;4.20;;
26211;SDS011;13951;49.516;6.094;2023-04-29T04:33:47;5.93;;;3.73;;
26211;SDS011;13951;49.516;6.094;2023-04-29T04:36:19;5.43;;;3.90;;
26211;SDS011;13951;49.516;6.094;2023-04-29T04:38:53;8.27;;;4.50;;
26211;SDS011;13951;49.516;6.094;2023-04-29T04:41:25;6.80;;;4.43;;
26211;SDS011;13951;49.516;6.094;2023-04-29T04:43:58;8.50;;;4.57;;
26211;SDS011;13951;49.516;6.094;2023-04-29T04:46:43;7.43;;;4.60;;
26211;SDS011;13951;49.516;6.094;2023-04-29T04:49:19;7.57;;;4.30;;
26211;SDS011;13951;49.516;6.094;2023-04-29T04:51:57;5.23;;;4.20;;
26211;SDS011;13951;49.516;6.094;2023-04-29T04:54:30;6.30;;;4.23;;
26211;SDS011;13951;49.516;6.094;2023-04-29T04:57:20;8.00;;;4.93;;
26211;SDS011;13951;49.516;6.094;2023-04-29T04:59:53;8.20;;;4.63;;
26211;SDS011;13951;49.516;6.094;2023-04-29T05:02:26;8.47;;;5.00;;
26211;SDS011;13951;49.516;6.094;2023-04-29T05:04:59;9.60;;;5.63;;
26211;SDS011;13951;49.516;6.094;2023-04-29T05:07:35;8.00;;;4.50;;
26211;SDS011;13951;49.516;6.094;2023-04-29T05:10:09;8.00;;;4.67;;
26211;SDS011;13951;49.516;6.094;2023-04-29T05:12:55;8.37;;;5.00;;
26211;SDS011;13951;49.516;6.094;2023-04-29T05:15:29;9.97;;;6.00;;
26211;SDS011;13951;49.516;6.094;2023-04-29T05:18:05;7.40;;;4.53;;
26211;SDS011;13951;49.516;6.094;2023-04-29T05:20:38;11.87;;;5.40;;
26211;SDS011;13951;49.516;6.094;2023-04-29T05:23:13;7.83;;;5.40;;
26211;SDS011;13951;49.516;6.094;2023-04-29T05:25:48;9.00;;;5.57;;
26211;SDS011;13951;49.516;6.094;2023-04-29T05:28:22;8.93;;;5.20;;
26211;SDS011;13951;49.516;6.094;2023-04-29T05:30:56;10.13;;;5.60;;
26211;SDS011;13951;49.516;6.094;2023-04-29T05:33:29;9.50;;;5.43;;
26211;SDS011;13951;49.516;6.094;2023-04-29T05:36:02;9.10;;;5.20;;
26211;SDS011;13951;49.516;6.094;2023-04-29T05:38:35;9.20;;;5.30;;
26211;SDS011;13951;49.516;6.094;2023-04-29T05:41:12;10.73;;;5.07;;
26211;SDS011;13951;49.516;6.094;2023-04-29T05:44:11;9.30;;;5.37;;
26211;SDS011;13951;49.516;6.094;2023-04-29T05:46:44;10.67;;;5.20;;
26211;SDS011;13951;49.516;6.094;2023-04-29T05:49:20;8.57;;;5.07;;
26211;SDS011;13951;49.516;6.094;2023-04-29T05:51:53;8.87;;;5.27;;
26211;SDS011;13951;49.516;6.094;2023-04-29T05:54:26;8.87;;;4.93;;
26211;SDS011;13951;49.516;6.094;2023-04-29T05:56:59;8.97;;;5.80;;
26211;SDS011;13951;49.516;6.094;2023-04-29T05:59:36;9.70;;;5.37;;
26211;SDS011;13951;49.516;6.094;2023-04-29T06:02:10;10.27;;;4.90;;
26211;SDS011;13951;49.516;6.094;2023-04-29T06:04:45;9.90;;;5.13;;
26211;SDS011;13951;49.516;6.094;2023-04-29T06:07:31;7.77;;;4.87;;
26211;SDS011;13951;49.516;6.094;2023-04-29T06:10:22;7.20;;;4.87;;
26211;SDS011;13951;49.516;6.094;2023-04-29T06:12:55;9.10;;;5.43;;
26211;SDS011;13951;49.516;6.094;2023-04-29T06:15:28;11.10;;;6.53;;
26211;SDS011;13951;49.516;6.094;2023-04-29T06:18:01;10.80;;;5.70;;
26211;SDS011;13951;49.516;6.094;2023-04-29T06:20:34;10.40;;;5.50;;
26211;SDS011;13951;49.516;6.094;2023-04-29T06:23:09;10.73;;;5.37;;
26211;SDS011;13951;49.516;6.094;2023-04-29T06:25:42;10.27;;;5.83;;
26211;SDS011;13951;49.516;6.094;2023-04-29T06:28:14;11.67;;;6.13;;
26211;SDS011;13951;49.516;6.094;2023-04-29T06:30:48;12.10;;;6.20;;
26211;SDS011;13951;49.516;6.094;2023-04-29T06:33:22;9.53;;;5.70;;
26211;SDS011;13951;49.516;6.094;2023-04-29T06:35:55;11.63;;;6.47;;
26211;SDS011;13951;49.516;6.094;2023-04-29T06:38:47;9.83;;;6.10;;
26211;SDS011;13951;49.516;6.094;2023-04-29T06:41:27;11.47;;;6.13;;
26211;SDS011;13951;49.516;6.094;2023-04-29T06:44:28;10.33;;;5.30;;
26211;SDS011;13951;49.516;6.094;2023-04-29T06:47:17;10.87;;;5.87;;
26211;SDS011;13951;49.516;6.094;2023-04-29T06:49:59;10.93;;;5.33;;
26211;SDS011;13951;49.516;6.094;2023-04-29T06:52:32;9.67;;;4.90;;
26211;SDS011;13951;49.516;6.094;2023-04-29T06:55:05;10.67;;;5.03;;
26211;SDS011;13951;49.516;6.094;2023-04-29T06:57:39;8.80;;;4.77;;
26211;SDS011;13951;49.516;6.094;2023-04-29T07:00:12;9.70;;;4.00;;
26211;SDS011;13951;49.516;6.094;2023-04-29T07:02:47;7.43;;;4.13;;
26211;SDS011;13951;49.516;6.094;2023-04-29T07:05:20;8.87;;;4.27;;
26211;SDS011;13951;49.516;6.094;2023-04-29T07:07:53;9.43;;;4.90;;
26211;SDS011;13951;49.516;6.094;2023-04-29T07:10:26;9.80;;;5.00;;
26211;SDS011;13951;49.516;6.094;2023-04-29T07:12:59;11.73;;;6.53;;
26211;SDS011;13951;49.516;6.094;2023-04-29T07:15:33;8.57;;;5.03;;
26211;SDS011;13951;49.516;6.094;2023-04-29T07:18:06;11.63;;;6.32;;
26211;SDS011;13951;49.516;6.094;2023-04-29T07:20:41;10.57;;;5.20;;
26211;SDS011;13951;49.516;6.094;2023-04-29T07:23:15;8.67;;;4.90;;
26211;SDS011;13951;49.516;6.094;2023-04-29T07:25:48;9.50;;;5.27;;
26211;SDS011;13951;49.516;6.094;2023-04-29T07:28:21;8.80;;;4.77;;
26211;SDS011;13951;49.516;6.094;2023-04-29T07:30:56;11.57;;;5.20;;
26211;SDS011;13951;49.516;6.094;2023-04-29T07:33:29;9.50;;;5.13;;
26211;SDS011;13951;49.516;6.094;2023-04-29T07:36:04;8.77;;;5.20;;
26211;SDS011;13951;49.516;6.094;2023-04-29T07:38:38;9.83;;;4.90;;
26211;SDS011;13951;49.516;6.094;2023-04-29T07:41:11;8.43;;;4.77;;
26211;SDS011;13951;49.516;6.094;2023-04-29T07:43:45;10.43;;;5.13;;
26211;SDS011;13951;49.516;6.094;2023-04-29T07:46:18;8.73;;;4.70;;
26211;SDS011;13951;49.516;6.094;2023-04-29T07:48:51;8.70;;;4.33;;
26211;SDS011;13951;49.516;6.094;2023-04-29T07:51:25;8.57;;;4.27;;
26211;SDS011;13951;49.516;6.094;2023-04-29T07:54:00;8.63;;;4.43;;
26211;SDS011;13951;49.516;6.094;2023-04-29T07:56:33;7.70;;;4.07;;
26211;SDS011;13951;49.516;6.094;2023-04-29T07:59:06;7.93;;;4.30;;
26211;SDS011;13951;49.516;6.094;2023-04-29T08:01:39;7.17;;;3.83;;
26211;SDS011;13951;49.516;6.094;2023-04-29T08:04:13;5.93;;;3.50;;
26211;SDS011;13951;49.516;6.094;2023-04-29T08:06:53;6.67;;;3.53;;
26211;SDS011;13951;49.516;6.094;2023-04-29T08:09:28;7.40;;;3.87;;
26211;SDS011;13951;49.516;6.094;2023-04-29T08:12:01;7.13;;;4.00;;
26211;SDS011;13951;49.516;6.094;2023-04-29T08:14:48;7.10;;;3.93;;
26211;SDS011;13951;49.516;6.094;2023-04-29T08:17:48;10.80;;;4.40;;
26211;SDS011;13951;49.516;6.094;2023-04-29T08:20:23;7.40;;;3.93;;
26211;SDS011;13951;49.516;6.094;2023-04-29T08:22:58;9.40;;;4.67;;
26211;SDS011;13951;49.516;6.094;2023-04-29T08:25:34;8.87;;;4.83;;
26211;SDS011;13951;49.516;6.094;2023-04-29T08:28:21;7.93;;;3.97;;
26211;SDS011;13951;49.516;6.094;2023-04-29T08:31:14;8.40;;;4.40;;
26211;SDS011;13951;49.516;6.094;2023-04-29T08:33:51;9.10;;;4.57;;
26211;SDS011;13951;49.516;6.094;2023-04-29T08:36:25;6.20;;;4.23;;
26211;SDS011;13951;49.516;6.094;2023-04-29T08:39:03;8.10;;;4.33;;
26211;SDS011;13951;49.516;6.094;2023-04-29T08:41:37;8.17;;;4.60;;
26211;SDS011;13951;49.516;6.094;2023-04-29T08:44:10;7.73;;;3.70;;
26211;SDS011;13951;49.516;6.094;2023-04-29T08:46:57;8.07;;;4.17;;
26211;SDS011;13951;49.516;6.094;2023-04-29T08:49:31;7.03;;;4.53;;
26211;SDS011;13951;49.516;6.094;2023-04-29T08:52:05;7.27;;;3.97;;
26211;SDS011;13951;49.516;6.094;2023-04-29T08:54:40;6.87;;;4.00;;
26211;SDS011;13951;49.516;6.094;2023-04-29T08:57:17;7.47;;;4.03;;
26211;SDS011;13951;49.516;6.094;2023-04-29T08:59:58;6.87;;;3.90;;
26211;SDS011;13951;49.516;6.094;2023-04-29T09:02:32;8.90;;;4.40;;
26211;SDS011;13951;49.516;6.094;2023-04-29T09:05:12;6.67;;;3.63;;
26211;SDS011;13951;49.516;6.094;2023-04-29T09:07:46;7.37;;;4.17;;
26211;SDS011;13951;49.516;6.094;2023-04-29T09:10:21;7.20;;;4.37;;
26211;SDS011;13951;49.516;6.094;2023-04-29T09:12:55;6.93;;;4.00;;
26211;SDS011;13951;49.516;6.094;2023-04-29T09:15:34;7.43;;;3.80;;
26211;SDS011;13951;49.516;6.094;2023-04-29T09:23:55;7.97;;;4.07;;
26211;SDS011;13951;49.516;6.094;2023-04-29T09:26:39;7.30;;;4.23;;
26211;SDS011;13951;49.516;6.094;2023-04-29T09:29:14;6.10;;;3.90;;
26211;SDS011;13951;49.516;6.094;2023-04-29T09:32:17;8.90;;;4.73;;
26211;SDS011;13951;49.516;6.094;2023-04-29T09:34:51;7.37;;;4.03;;
26211;SDS011;13951;49.516;6.094;2023-04-29T09:37:26;6.37;;;4.10;;
26211;SDS011;13951;49.516;6.094;2023-04-29T09:40:33;6.93;;;4.17;;
26211;SDS011;13951;49.516;6.094;2023-04-29T09:43:21;8.47;;;3.70;;
26211;SDS011;13951;49.516;6.094;2023-04-29T09:46:11;9.20;;;4.70;;
26211;SDS011;13951;49.516;6.094;2023-04-29T09:48:47;8.20;;;4.10;;
26211;SDS011;13951;49.516;6.094;2023-04-29T09:51:40;9.63;;;4.40;;
26211;SDS011;13951;49.516;6.094;2023-04-29T09:54:46;6.97;;;3.97;;
26211;SDS011;13951;49.516;6.094;2023-04-29T09:57:27;8.93;;;4.50;;
26211;SDS011;13951;49.516;6.094;2023-04-29T10:00:15;10.40;;;5.33;;
26211;SDS011;13951;49.516;6.094;2023-04-29T10:02:49;37.73;;;13.57;;
26211;SDS011;13951;49.516;6.094;2023-04-29T10:05:27;21.33;;;8.47;;
26211;SDS011;13951;49.516;6.094;2023-04-29T10:08:07;20.17;;;9.20;;
26211;SDS011;13951;49.516;6.094;2023-04-29T10:10:41;15.77;;;8.23;;
26211;SDS011;13951;49.516;6.094;2023-04-29T10:13:17;9.47;;;5.13;;
26211;SDS011;13951;49.516;6.094;2023-04-29T10:19:02;8.48;;;4.70;;
26211;SDS011;13951;49.516;6.094;2023-04-29T10:21:38;6.03;;;3.77;;
26211;SDS011;13951;49.516;6.094;2023-04-29T10:24:11;7.93;;;4.80;;
26211;SDS011;13951;49.516;6.094;2023-04-29T10:26:46;6.83;;;3.70;;
26211;SDS011;13951;49.516;6.094;2023-04-29T10:29:22;7.13;;;3.83;;
26211;SDS011;13951;49.516;6.094;2023-04-29T10:31:59;6.07;;;3.87;;
26211;SDS011;13951;49.516;6.094;2023-04-29T10:34:33;5.40;;;3.47;;
26211;SDS011;13951;49.516;6.094;2023-04-29T10:37:09;5.47;;;3.07;;
26211;SDS011;13951;49.516;6.094;2023-04-29T10:39:49;8.97;;;3.33;;
26211;SDS011;13951;49.516;6.094;2023-04-29T10:45:22;6.10;;;3.10;;
26211;SDS011;13951;49.516;6.094;2023-04-29T10:53:20;5.43;;;3.33;;
26211;SDS011;13951;49.516;6.094;2023-04-29T10:55:55;5.80;;;3.53;;
26211;SDS011;13951;49.516;6.094;2023-04-29T11:01:16;7.25;;;4.53;;
26211;SDS011;13951;49.516;6.094;2023-04-29T11:09:10;5.57;;;3.40;;
26211;SDS011;13951;49.516;6.094;2023-04-29T11:17:12;4.83;;;3.30;;
26211;SDS011;13951;49.516;6.094;2023-04-29T11:19:51;5.47;;;3.50;;
26211;SDS011;13951;49.516;6.094;2023-04-29T11:22:25;6.10;;;3.80;;
26211;SDS011;13951;49.516;6.094;2023-04-29T11:25:00;5.40;;;3.30;;
26211;SDS011;13951;49.516;6.094;2023-04-29T11:27:38;5.77;;;3.27;;
26211;SDS011;13951;49.516;6.094;2023-04-29T11:30:13;5.33;;;3.30;;
26211;SDS011;13951;49.516;6.094;2023-04-29T11:32:48;6.03;;;3.70;;
26211;SDS011;13951;49.516;6.094;2023-04-29T11:35:23;6.00;;;3.77;;
26211;SDS011;13951;49.516;6.094;2023-04-29T11:37:56;6.20;;;3.43;;
26211;SDS011;13951;49.516;6.094;2023-04-29T11:40:31;7.83;;;3.93;;
26211;SDS011;13951;49.516;6.094;2023-04-29T11:43:04;7.30;;;4.00;;
26211;SDS011;13951;49.516;6.094;2023-04-29T11:45:38;7.33;;;5.07;;
26211;SDS011;13951;49.516;6.094;2023-04-29T11:48:21;6.83;;;4.10;;
26211;SDS011;13951;49.516;6.094;2023-04-29T11:50:57;6.23;;;3.73;;
26211;SDS011;13951;49.516;6.094;2023-04-29T11:53:30;5.80;;;3.83;;
26211;SDS011;13951;49.516;6.094;2023-04-29T11:56:04;6.63;;;4.00;;
26211;SDS011;13951;49.516;6.094;2023-04-29T11:58:38;8.55;;;4.20;;
26211;SDS011;13951;49.516;6.094;2023-04-29T12:01:11;5.70;;;4.00;;
26211;SDS011;13951;49.516;6.094;2023-04-29T12:03:45;6.27;;;3.77;;
26211;SDS011;13951;49.516;6.094;2023-04-29T12:06:21;7.40;;;4.70;;
26211;SDS011;13951;49.516;6.094;2023-04-29T12:08:58;8.40;;;4.13;;
26211;SDS011;13951;49.516;6.094;2023-04-29T12:11:47;7.20;;;4.43;;
26211;SDS011;13951;49.516;6.094;2023-04-29T12:14:24;6.73;;;3.83;;
26211;SDS011;13951;49.516;6.094;2023-04-29T12:16:57;5.50;;;3.60;;
26211;SDS011;13951;49.516;6.094;2023-04-29T12:19:31;5.43;;;3.43;;
26211;SDS011;13951;49.516;6.094;2023-04-29T12:22:04;7.10;;;3.90;;
26211;SDS011;13951;49.516;6.094;2023-04-29T12:24:39;6.53;;;3.87;;
26211;SDS011;13951;49.516;6.094;2023-04-29T12:27:12;5.30;;;3.50;;
26211;SDS011;13951;49.516;6.094;2023-04-29T12:29:45;7.47;;;4.03;;
26211;SDS011;13951;49.516;6.094;2023-04-29T12:32:21;6.37;;;3.90;;
26211;SDS011;13951;49.516;6.094;2023-04-29T12:34:55;5.87;;;3.60;;
26211;SDS011;13951;49.516;6.094;2023-04-29T12:37:28;6.67;;;3.83;;
26211;SDS011;13951;49.516;6.094;2023-04-29T12:40:01;8.00;;;4.37;;
26211;SDS011;13951;49.516;6.094;2023-04-29T12:42:35;5.70;;;3.47;;
26211;SDS011;13951;49.516;6.094;2023-04-29T12:45:08;4.27;;;2.90;;
26211;SDS011;13951;49.516;6.094;2023-04-29T12:47:57;6.13;;;3.60;;
26211;SDS011;13951;49.516;6.094;2023-04-29T12:50:33;5.63;;;3.33;;
26211;SDS011;13951;49.516;6.094;2023-04-29T12:53:07;4.47;;;3.10;;
26211;SDS011;13951;49.516;6.094;2023-04-29T12:55:40;4.93;;;3.07;;
26211;SDS011;13951;49.516;6.094;2023-04-29T12:58:13;5.60;;;3.30;;
26211;SDS011;13951;49.516;6.094;2023-04-29T13:00:46;5.30;;;3.30;;
26211;SDS011;13951;49.516;6.094;2023-04-29T13:03:20;4.20;;;2.93;;
26211;SDS011;13951;49.516;6.094;2023-04-29T13:05:54;4.23;;;2.97;;
26211;SDS011;13951;49.516;6.094;2023-04-29T13:08:27;6.07;;;3.20;;
26211;SDS011;13951;49.516;6.094;2023-04-29T13:11:00;4.27;;;2.80;;
26211;SDS011;13951;49.516;6.094;2023-04-29T13:13:34;3.97;;;3.20;;
26211;SDS011;13951;49.516;6.094;2023-04-29T13:16:07;4.97;;;3.17;;
26211;SDS011;13951;49.516;6.094;2023-04-29T13:18:40;5.00;;;3.30;;
26211;SDS011;13951;49.516;6.094;2023-04-29T13:21:33;3.40;;;2.87;;
26211;SDS011;13951;49.516;6.094;2023-04-29T13:24:05;6.43;;;3.73;;
26211;SDS011;13951;49.516;6.094;2023-04-29T13:26:39;5.17;;;3.13;;
26211;SDS011;13951;49.516;6.094;2023-04-29T13:29:12;6.17;;;3.43;;
26211;SDS011;13951;49.516;6.094;2023-04-29T13:31:46;5.20;;;3.30;;
26211;SDS011;13951;49.516;6.094;2023-04-29T13:34:19;5.20;;;3.30;;
26211;SDS011;13951;49.516;6.094;2023-04-29T13:36:52;4.47;;;3.03;;
26211;SDS011;13951;49.516;6.094;2023-04-29T13:39:25;4.70;;;2.90;;
26211;SDS011;13951;49.516;6.094;2023-04-29T13:41:58;5.47;;;3.47;;
26211;SDS011;13951;49.516;6.094;2023-04-29T13:44:31;4.90;;;3.27;;
26211;SDS011;13951;49.516;6.094;2023-04-29T13:47:20;4.27;;;3.17;;
26211;SDS011;13951;49.516;6.094;2023-04-29T13:49:57;5.17;;;3.53;;
26211;SDS011;13951;49.516;6.094;2023-04-29T13:52:50;4.53;;;3.33;;
26211;SDS011;13951;49.516;6.094;2023-04-29T13:55:26;5.50;;;3.27;;
26211;SDS011;13951;49.516;6.094;2023-04-29T13:58:20;4.87;;;2.77;;
26211;SDS011;13951;49.516;6.094;2023-04-29T14:00:56;6.32;;;3.80;;
26211;SDS011;13951;49.516;6.094;2023-04-29T14:03:32;6.20;;;2.93;;
26211;SDS011;13951;49.516;6.094;2023-04-29T14:06:07;5.67;;;3.47;;
26211;SDS011;13951;49.516;6.094;2023-04-29T14:08:40;3.93;;;2.80;;
26211;SDS011;13951;49.516;6.094;2023-04-29T14:11:13;4.77;;;3.07;;
26211;SDS011;13951;49.516;6.094;2023-04-29T14:13:46;3.63;;;2.60;;
26211;SDS011;13951;49.516;6.094;2023-04-29T14:16:20;4.17;;;2.60;;
26211;SDS011;13951;49.516;6.094;2023-04-29T14:18:53;4.27;;;2.80;;
26211;SDS011;13951;49.516;6.094;2023-04-29T14:21:26;15.27;;;8.87;;
26211;SDS011;13951;49.516;6.094;2023-04-29T14:23:59;4.60;;;3.60;;
26211;SDS011;13951;49.516;6.094;2023-04-29T14:26:35;3.63;;;2.90;;
26211;SDS011;13951;49.516;6.094;2023-04-29T14:29:08;5.07;;;3.33;;
26211;SDS011;13951;49.516;6.094;2023-04-29T14:31:42;3.33;;;2.40;;
26211;SDS011;13951;49.516;6.094;2023-04-29T14:34:15;4.07;;;2.73;;
26211;SDS011;13951;49.516;6.094;2023-04-29T14:36:48;3.33;;;2.20;;
26211;SDS011;13951;49.516;6.094;2023-04-29T14:39:21;3.10;;;2.57;;
26211;SDS011;13951;49.516;6.094;2023-04-29T14:41:54;3.60;;;2.53;;
26211;SDS011;13951;49.516;6.094;2023-04-29T14:44:27;3.87;;;2.57;;
26211;SDS011;13951;49.516;6.094;2023-04-29T14:47:02;4.60;;;3.03;;
26211;SDS011;13951;49.516;6.094;2023-04-29T14:49:36;3.10;;;2.57;;
26211;SDS011;13951;49.516;6.094;2023-04-29T14:52:09;3.83;;;2.50;;
26211;SDS011;13951;49.516;6.094;2023-04-29T14:54:42;3.27;;;2.13;;
26211;SDS011;13951;49.516;6.094;2023-04-29T14:57:14;3.53;;;2.80;;
26211;SDS011;13951;49.516;6.094;2023-04-29T14:59:47;3.20;;;2.40;;
26211;SDS011;13951;49.516;6.094;2023-04-29T15:02:21;2.53;;;2.00;;
26211;SDS011;13951;49.516;6.094;2023-04-29T15:04:54;2.67;;;2.03;;
26211;SDS011;13951;49.516;6.094;2023-04-29T15:07:28;3.13;;;2.13;;
26211;SDS011;13951;49.516;6.094;2023-04-29T15:10:03;2.73;;;2.17;;
26211;SDS011;13951;49.516;6.094;2023-04-29T15:12:38;2.40;;;1.80;;
26211;SDS011;13951;49.516;6.094;2023-04-29T15:15:19;1.90;;;1.80;;
26211;SDS011;13951;49.516;6.094;2023-04-29T15:17:53;2.30;;;1.67;;
26211;SDS011;13951;49.516;6.094;2023-04-29T15:20:26;2.17;;;1.80;;
26211;SDS011;13951;49.516;6.094;2023-04-29T15:22:59;2.10;;;1.90;;
26211;SDS011;13951;49.516;6.094;2023-04-29T15:25:33;2.13;;;1.87;;
26211;SDS011;13951;49.516;6.094;2023-04-29T15:28:07;1.63;;;1.53;;
26211;SDS011;13951;49.516;6.094;2023-04-29T15:30:40;3.00;;;2.10;;
26211;SDS011;13951;49.516;6.094;2023-04-29T15:33:14;1.83;;;1.50;;
26211;SDS011;13951;49.516;6.094;2023-04-29T15:35:50;1.57;;;1.33;;
26211;SDS011;13951;49.516;6.094;2023-04-29T15:38:22;2.30;;;1.67;;
26211;SDS011;13951;49.516;6.094;2023-04-29T15:40:56;5.83;;;4.00;;
26211;SDS011;13951;49.516;6.094;2023-04-29T15:43:32;2.03;;;1.50;;
26211;SDS011;13951;49.516;6.094;2023-04-29T15:46:05;2.37;;;2.17;;
26211;SDS011;13951;49.516;6.094;2023-04-29T15:48:38;1.90;;;1.67;;
26211;SDS011;13951;49.516;6.094;2023-04-29T15:51:11;1.20;;;1.10;;
26211;SDS011;13951;49.516;6.094;2023-04-29T15:53:46;1.57;;;1.37;;
26211;SDS011;13951;49.516;6.094;2023-04-29T15:56:20;2.15;;;1.58;;
26211;SDS011;13951;49.516;6.094;2023-04-29T15:58:52;1.47;;;1.30;;
26211;SDS011;13951;49.516;6.094;2023-04-29T16:01:25;2.10;;;1.50;;
26211;SDS011;13951;49.516;6.094;2023-04-29T16:03:59;2.10;;;1.30;;
26211;SDS011;13951;49.516;6.094;2023-04-29T16:06:32;1.90;;;1.30;;
26211;SDS011;13951;49.516;6.094;2023-04-29T16:09:05;1.70;;;1.37;;
26211;SDS011;13951;49.516;6.094;2023-04-29T16:11:38;1.40;;;1.30;;
26211;SDS011;13951;49.516;6.094;2023-04-29T16:14:10;1.33;;;1.23;;
26211;SDS011;13951;49.516;6.094;2023-04-29T16:16:43;1.87;;;1.43;;
26211;SDS011;13951;49.516;6.094;2023-04-29T16:19:17;2.10;;;1.60;;
26211;SDS011;13951;49.516;6.094;2023-04-29T16:21:49;1.63;;;1.30;;